• Join FlightAware (Why Join?)
  • Login
  • US Flag 
10:13AM EDT


 

Airport Tracker/Info


-or-


 

Live Flight TrackerFlight Track Log ✈ DAL3676 ✈ 27-Jul-2014 ✈ KBMI - KMSP

Flight Track Log - Related Links

Times and Time Zones

All times are in EDT time to prevent confusion due to time zone crossing. See the DAL3676 flight status page for this flight to view local times or setup timezone preferences in your user account.

Time Position Orientation Groundspeed Altitude Reporting Facility
EDT Latitude Longitude Course Direction KTS MPH feet Rate Location/Type
04:05PM 40.5314 -89.0436 312° West 195 224 6,100  Level Chicago Center
04:06PM 40.5800 -89.1028 317° Northwest 226 260 8,800 2,220 Climbing Chicago Center
04:07PM 40.6325 -89.1644 318° Northwest 247 284 10,800 1,440 Climbing Chicago Center
04:08PM 40.6961 -89.2403 318° Northwest 296 341 11,800 1,380 Climbing Chicago Center
04:09PM 40.7597 -89.3164 318° Northwest 309 356 13,700 1,860 Climbing Chicago Center
04:10PM 40.8369 -89.4086 318° Northwest 310 357 15,700 1,200 Climbing Chicago Center
04:11PM 40.9028 -89.4889 317° Northwest 322 371 16,300 600 Climbing Chicago Center
04:12PM 40.9736 -89.5736 318° Northwest 340 391 17,000 300 Climbing Chicago Center
04:13PM 41.0483 -89.6642 318° Northwest 356 410 17,000  Level Chicago Center
04:14PM 41.1397 -89.7753 318° Northwest 370 426 17,000  Level Chicago Center
04:15PM 41.2153 -89.8667 318° Northwest 370 426 17,000 60 Level Chicago Center
04:16PM 41.2894 -89.9594 317° Northwest 370 426 17,200 900 Climbing Chicago Center
04:17PM 41.3486 -90.0683 306° West 363 418 18,900 1,500 Climbing Chicago Center
04:18PM 41.4053 -90.1725 306° West 356 410 20,400 1,260 Climbing Chicago Center
04:19PM 41.4603 -90.2739 306° West 344 396 21,600 1,080 Climbing Chicago Center
04:20PM 41.5172 -90.4036 300° West 341 392 22,700 900 Climbing Chicago Center
04:21PM 41.5567 -90.5225 294° West 354 407 23,500 720 Climbing Chicago Center
04:23PM 41.6125 -90.6225 307° West 349 402 24,200 600 Climbing Chicago Center
04:24PM 41.6697 -90.7264 306° West 349 402 24,800 540 Climbing Chicago Center
04:25PM 41.7386 -90.8533 306° West 350 403 25,400 480 Climbing Chicago Center
04:26PM 41.7967 -90.9597 306° West 355 409 25,900 480 Climbing Chicago Center
04:27PM 41.8553 -91.0667 306° West 356 410 26,500 720 Climbing Chicago Center
04:28PM 41.9117 -91.1719 306° West 351 404 27,500 720 Climbing Chicago Center
04:29PM 41.9661 -91.2747 305° West 341 392 28,000 240 Climbing Chicago Center
04:30PM 42.0314 -91.3958 306° West 337 388 28,000  Level Chicago Center
04:31PM 42.0844 -91.4983 305° West 337 388 28,000  Level Chicago Center
04:32PM 42.1397 -91.5992 306° West 337 388 28,000  Level Chicago Center
04:33PM 42.1936 -91.7019 305° West 337 388 28,000  Level Chicago Center
04:34PM 42.2483 -91.8053 306° West 338 389 28,000  Level Chicago Center
04:35PM 42.3028 -91.9086 305° West 337 388 28,000  Level Chicago Center
04:36PM 42.3686 -92.0336 306° West 338 389 28,000  Level Chicago Center
04:37PM 42.4231 -92.1378 305° West 339 390 28,000  Level Chicago Center
04:38PM 42.4767 -92.2433 305° West 339 390 28,000  Level Chicago Center
04:39PM 42.5308 -92.3483 305° West 339 390 28,000  Level Chicago Center
04:40PM 42.5972 -92.4358 316° Northwest 337 388 28,000  Level Chicago Center
04:41PM 42.6925 -92.5233 326° Northwest 345 397 28,000  Level Chicago Center
04:42PM 42.7714 -92.5972 325° Northwest 344 396 28,000  Level Chicago Center
04:43PM 42.8519 -92.6703 326° Northwest 345 397 28,000  Level Chicago Center
04:44PM 42.9328 -92.7442 326° Northwest 348 400 28,000  Level Chicago Center
04:46PM 43.0689 -92.8708 326° Northwest 368 423 28,000  Level Minneapolis Center
04:47PM 43.1542 -92.9511 326° Northwest 372 428 28,000  Level Minneapolis Center
04:48PM 43.2425 -93.0314 327° Northwest 378 435 28,000  Level Minneapolis Center
04:49PM 43.3292 -93.1139 325° Northwest 380 437 28,000 -480 Level Minneapolis Center
04:50PM 43.4383 -93.1386 351° North 396 456 27,100 -2,040 Descending Minneapolis Center
04:51PM 43.5558 -93.1614 352° North 395 455 23,900 -2,820 Descending Minneapolis Center
04:52PM 43.6581 -93.1822 352° North 376 433 21,300 -2,460 Descending Minneapolis Center
04:53PM 43.7533 -93.2019 351° North 353 406 18,800 -2,460 Descending Minneapolis Center
04:54PM 43.8658 -93.2261 351° North 344 396 16,300 -2,220 Descending Minneapolis Center
04:55PM 43.9564 -93.2453 351° North 334 384 14,300 -1,980 Descending Minneapolis Center
04:56PM 44.0519 -93.2383 North 342 394 12,300 -1,980 Descending Minneapolis Center
04:57PM 44.1472 -93.2300 North 343 395 10,300 -1,140 Descending Minneapolis Center
04:58PM 44.2325 -93.2219 North 296 341 10,000 -240 Descending Minneapolis Center
04:59PM 44.3039 -93.2142 North 263 303 9,900 -660 Descending Minneapolis Center
05:00PM 44.3803 -93.1953 10° North 230 265 8,700 -1,080 Descending Minneapolis Center
05:01PM 44.4367 -93.1758 14° North 214 246 7,700 -840 Descending Minneapolis Center
05:02PM 44.4806 -93.1314 36° Northeast 211 243 7,000 -360 Descending Minneapolis Center
05:03PM 44.5261 -93.1494 344° North 171 197 7,000 -240 Level Minneapolis Center
05:04PM 44.5736 -93.1611 350° North 172 198 6,600 -780 Descending Minneapolis Center
05:05PM 44.6283 -93.1753 350° North 168 193 5,400 -1,020 Descending Minneapolis Center
05:06PM 44.6714 -93.1861 350° North 162 186 4,600 -840 Descending Minneapolis Center
05:07PM 44.7150 -93.1964 350° North 160 184 3,700 -780 Descending Minneapolis Center
05:08PM 44.7572 -93.2083 349° North 161 185 3,000 -840 Descending Minneapolis Center
05:10PM 44.8067 -93.2211 350° North 160 184 2,000 -840 Descending Minneapolis Center
05:11PM 44.8422 -93.2306 349° North 136 157 1,300 -720 Descending Minneapolis Center
05:13PM 44.8667 -93.2167 North  Level FlightAware Approximate
05:20PM 44.8820 -93.2218 North  Level Estimated